Time;durP1;ratioP1;P1;durP2;ratioP2;P2;SDS_P1;SDS_P2;PMS_P1;PMS_P2;Temp;Humidity;BMP_temperature;BMP_pressure;BME280_temperature;BME280_humidity;BME280_pressure;Samples;Min_cycle;Max_cycle;Signal;HPM_P1;HPM_P2
2023/05/18 00:01:29;;;;;;;8.83;3.40;;;12.50;94.70;;;;;;4985203;28;20281;-34
2023/05/18 00:03:56;;;;;;;6.73;3.07;;;12.50;94.90;;;;;;4984004;28;20762;-34
2023/05/18 00:06:26;;;;;;;8.90;3.40;;;12.40;94.80;;;;;;4995347;28;20213;-34
2023/05/18 00:08:53;;;;;;;10.07;3.20;;;12.40;94.80;;;;;;4987445;28;20284;-34
2023/05/18 00:11:21;;;;;;;7.87;3.40;;;12.40;95.00;;;;;;4984890;28;20720;-34
2023/05/18 00:13:48;;;;;;;7.13;3.20;;;12.40;94.80;;;;;;4984320;28;20253;-34
2023/05/18 00:16:15;;;;;;;8.73;3.20;;;12.30;94.80;;;;;;4986936;28;20301;-34
2023/05/18 00:18:46;;;;;;;11.23;3.60;;;12.30;94.90;;;;;;4994453;28;20292;-34
2023/05/18 00:21:19;;;;;;;8.97;3.50;;;12.20;94.80;;;;;;4997128;28;20858;-34
2023/05/18 00:23:49;;;;;;;10.10;3.33;;;12.20;94.80;;;;;;4977042;28;20298;-34
2023/05/18 00:26:16;;;;;;;9.80;3.53;;;12.10;94.80;;;;;;4991139;28;20355;-34
2023/05/18 00:28:48;;;;;;;12.73;3.20;;;12.10;94.70;;;;;;4991245;28;20201;-34
2023/05/18 00:31:18;;;;;;;9.97;3.60;;;12.00;94.70;;;;;;4999086;28;20329;-34
2023/05/18 00:33:50;;;;;;;10.17;3.33;;;12.00;94.80;;;;;;4996873;28;20734;-34
2023/05/18 00:36:24;;;;;;;12.43;3.17;;;11.90;94.80;;;;;;4994693;28;20220;-34
2023/05/18 00:38:56;;;;;;;8.53;3.00;;;11.90;94.80;;;;;;4998758;28;20312;-34
2023/05/18 00:41:27;;;;;;;9.67;3.57;;;11.80;94.80;;;;;;4985203;28;20253;-34
2023/05/18 00:43:57;;;;;;;11.00;3.90;;;11.80;94.80;;;;;;4993068;28;20329;-33
2023/05/18 00:46:28;;;;;;;6.90;3.20;;;11.80;95.00;;;;;;4994695;28;20317;-34
2023/05/18 00:48:56;;;;;;;10.70;3.90;;;11.70;94.90;;;;;;4996115;28;20221;-34
2023/05/18 00:51:26;;;;;;;8.13;3.50;;;11.70;95.20;;;;;;4983814;28;20249;-34
2023/05/18 00:53:55;;;;;;;8.93;3.57;;;11.60;94.90;;;;;;4994253;28;20728;-33
2023/05/18 00:56:25;;;;;;;7.27;3.07;;;11.60;95.10;;;;;;4997191;28;20374;-34
2023/05/18 00:58:54;;;;;;;8.43;3.57;;;11.50;94.80;;;;;;4989426;28;20202;-34
2023/05/18 01:01:29;;;;;;;11.57;4.03;;;11.50;94.80;;;;;;4984989;28;20369;-34
2023/05/18 01:04:01;;;;;;;13.87;4.00;;;11.50;95.10;;;;;;4985669;28;20237;-34
2023/05/18 01:06:34;;;;;;;6.60;3.13;;;11.40;95.00;;;;;;4985663;28;20583;-31
2023/05/18 01:09:05;;;;;;;7.27;3.27;;;11.40;94.80;;;;;;4995186;28;20228;-31
2023/05/18 01:11:38;;;;;;;8.53;3.70;;;11.40;94.80;;;;;;4984101;28;20610;-31
2023/05/18 01:14:12;;;;;;;8.17;3.30;;;11.40;95.10;;;;;;4990731;28;20303;-31
2023/05/18 01:16:47;;;;;;;12.80;3.30;;;11.40;95.00;;;;;;4986995;28;20232;-31
2023/05/18 01:19:34;;;;;;;7.70;3.20;;;11.40;94.80;;;;;;4993475;28;20198;-31
2023/05/18 01:22:21;;;;;;;11.47;3.70;;;11.40;95.30;;;;;;4984572;28;20213;-31
2023/05/18 01:24:52;;;;;;;7.97;3.00;;;11.40;95.20;;;;;;4994057;28;20853;-31
2023/05/18 01:27:23;;;;;;;7.77;3.00;;;11.30;95.20;;;;;;4997104;28;20202;-31
2023/05/18 01:29:54;;;;;;;7.63;2.70;;;11.30;94.90;;;;;;4999189;28;20754;-31
2023/05/18 01:32:26;;;;;;;12.00;3.37;;;11.20;94.90;;;;;;4982824;28;20233;-31
2023/05/18 01:34:56;;;;;;;7.70;3.33;;;11.20;95.00;;;;;;4988564;28;20202;-31
2023/05/18 01:37:28;;;;;;;8.63;2.87;;;11.20;95.00;;;;;;4974593;28;20699;-31
2023/05/18 01:39:55;;;;;;;8.57;2.80;;;11.10;95.00;;;;;;4976100;28;20228;-31
2023/05/18 01:42:26;;;;;;;9.23;3.43;;;11.10;94.90;;;;;;4970716;28;20256;-31
2023/05/18 01:45:14;;;;;;;9.13;3.23;;;11.10;95.00;;;;;;5000986;28;20746;-31
2023/05/18 01:47:44;;;;;;;9.90;3.60;;;11.10;95.20;;;;;;5004163;28;20209;-31
2023/05/18 01:50:21;;;;;;;10.40;3.03;;;11.10;95.30;;;;;;5003109;28;20249;-31
2023/05/18 01:52:56;;;;;;;6.90;2.93;;;11.00;95.20;;;;;;5003316;28;20197;-31
2023/05/18 01:55:29;;;;;;;6.83;2.73;;;11.00;95.20;;;;;;5001847;28;20209;-31
2023/05/18 01:58:00;;;;;;;11.90;3.40;;;11.00;95.20;;;;;;4990172;28;20238;-31
2023/05/18 02:00:27;;;;;;;8.30;3.10;;;11.00;95.10;;;;;;4969979;28;20261;-31
2023/05/18 02:02:55;;;;;;;10.13;3.30;;;11.00;95.10;;;;;;4986352;28;20292;-31
2023/05/18 02:05:22;;;;;;;7.50;3.17;;;11.00;95.50;;;;;;4986563;28;20210;-31
2023/05/18 02:07:54;;;;;;;11.47;3.37;;;11.00;95.20;;;;;;4998194;28;20648;-31
2023/05/18 02:10:28;;;;;;;10.73;3.13;;;11.00;95.30;;;;;;5006186;28;20718;-31
2023/05/18 02:13:00;;;;;;;7.07;3.23;;;10.90;95.20;;;;;;5003403;28;20221;-31
2023/05/18 02:15:32;;;;;;;7.73;2.97;;;10.90;95.30;;;;;;4987185;28;20779;-31
2023/05/18 02:17:59;;;;;;;6.20;3.03;;;10.90;95.20;;;;;;4986235;28;20218;-31
2023/05/18 02:20:32;;;;;;;10.27;2.97;;;10.80;95.20;;;;;;5003752;28;20205;-31
2023/05/18 02:23:01;;;;;;;10.83;3.03;;;10.80;95.30;;;;;;4994849;28;20642;-31
2023/05/18 02:25:31;;;;;;;8.03;3.20;;;10.80;95.20;;;;;;4991547;28;20731;-30
2023/05/18 02:28:00;;;;;;;8.93;3.10;;;10.80;95.30;;;;;;4999195;28;20197;-31
2023/05/18 02:30:33;;;;;;;10.47;3.37;;;10.80;95.30;;;;;;4999219;28;20310;-31
2023/05/18 02:33:07;;;;;;;9.27;3.27;;;10.70;95.40;;;;;;5004894;28;20527;-31
2023/05/18 02:35:40;;;;;;;6.93;2.87;;;10.70;95.30;;;;;;4999781;28;20343;-31
2023/05/18 02:38:09;;;;;;;9.70;3.00;;;10.70;95.40;;;;;;4984104;28;20517;-31
2023/05/18 02:40:39;;;;;;;7.63;2.90;;;10.70;95.50;;;;;;4999345;28;20214;-31
2023/05/18 02:43:14;;;;;;;8.67;3.10;;;10.60;95.30;;;;;;4987929;28;20222;-31
2023/05/18 02:45:41;;;;;;;10.50;3.50;;;10.60;95.20;;;;;;4986682;28;20335;-31
2023/05/18 02:48:11;;;;;;;9.57;3.00;;;10.60;95.20;;;;;;4995000;28;20621;-31
2023/05/18 02:50:42;;;;;;;9.07;3.10;;;10.60;95.20;;;;;;5004460;28;20707;-31
2023/05/18 02:53:12;;;;;;;10.97;3.30;;;10.60;95.20;;;;;;4990455;28;20313;-31
2023/05/18 02:55:42;;;;;;;7.70;3.20;;;10.60;95.30;;;;;;5005583;28;20295;-31
2023/05/18 02:58:12;;;;;;;9.43;2.90;;;10.60;95.50;;;;;;5005707;28;20269;-31
2023/05/18 03:00:47;;;;;;;7.83;3.00;;;10.60;95.30;;;;;;4999488;28;20210;-31
2023/05/18 03:03:16;;;;;;;9.97;3.07;;;10.50;95.20;;;;;;4988465;28;20345;-31
2023/05/18 03:05:46;;;;;;;10.77;3.67;;;10.50;95.30;;;;;;5000102;28;20303;-31
2023/05/18 03:08:21;;;;;;;8.27;3.43;;;10.50;95.40;;;;;;4984910;28;20320;-31
2023/05/18 03:10:51;;;;;;;9.53;3.77;;;10.40;95.30;;;;;;4985599;28;20221;-31
2023/05/18 03:13:20;;;;;;;11.17;3.77;;;10.40;95.20;;;;;;4986979;28;20257;-31
2023/05/18 03:15:49;;;;;;;7.17;3.00;;;10.40;95.20;;;;;;4986038;28;20376;-31
2023/05/18 03:18:20;;;;;;;8.50;3.40;;;10.40;95.30;;;;;;4989117;28;20304;-31
2023/05/18 03:20:50;;;;;;;8.33;2.73;;;10.40;95.40;;;;;;4992165;28;20681;-31
2023/05/18 03:23:19;;;;;;;6.30;3.37;;;10.40;95.40;;;;;;4986951;28;20221;-31
2023/05/18 03:25:54;;;;;;;10.83;3.97;;;10.30;95.50;;;;;;4995928;28;20606;-31
2023/05/18 03:28:21;;;;;;;8.87;3.57;;;10.30;95.40;;;;;;5005291;28;20286;-31
2023/05/18 03:30:53;;;;;;;7.10;3.30;;;10.30;95.40;;;;;;5005862;28;20205;-31
2023/05/18 03:33:20;;;;;;;7.43;3.83;;;10.30;95.40;;;;;;5003717;28;20698;-31
2023/05/18 03:35:48;;;;;;;11.03;3.37;;;10.30;95.50;;;;;;4994383;28;20286;-31
2023/05/18 03:38:20;;;;;;;8.93;3.17;;;10.30;95.50;;;;;;4987440;28;20226;-31
2023/05/18 03:40:47;;;;;;;7.17;3.03;;;10.30;95.50;;;;;;4986974;28;20206;-31
2023/05/18 03:43:17;;;;;;;10.50;4.03;;;10.30;95.50;;;;;;4984948;28;20638;-31
2023/05/18 03:45:48;;;;;;;8.73;3.57;;;10.20;95.50;;;;;;4985833;28;20226;-31
2023/05/18 03:48:16;;;;;;;8.70;3.20;;;10.20;95.50;;;;;;4986414;28;20226;-31
2023/05/18 03:50:45;;;;;;;9.20;3.47;;;10.20;95.50;;;;;;4985897;28;20288;-31
2023/05/18 03:53:12;;;;;;;11.33;3.40;;;10.20;95.50;;;;;;4985266;28;20270;-31
2023/05/18 03:55:40;;;;;;;10.43;3.50;;;10.20;95.60;;;;;;4993376;28;20583;-31
2023/05/18 03:58:07;;;;;;;6.03;3.40;;;10.10;95.60;;;;;;5003763;28;20252;-31
2023/05/18 04:00:37;;;;;;;10.17;3.73;;;10.10;95.70;;;;;;5003256;28;20671;-31
2023/05/18 04:03:06;;;;;;;11.23;3.47;;;10.10;95.80;;;;;;4991311;28;20238;-31
2023/05/18 04:05:36;;;;;;;7.80;3.27;;;10.00;95.70;;;;;;4992989;28;20633;-31
2023/05/18 04:08:04;;;;;;;9.83;4.00;;;10.00;95.80;;;;;;4998223;28;20287;-31
2023/05/18 04:10:33;;;;;;;8.93;3.63;;;10.00;95.90;;;;;;5001802;28;20197;-32
2023/05/18 04:13:00;;;;;;;11.03;4.23;;;10.00;95.80;;;;;;4995250;28;20301;-32
2023/05/18 04:15:32;;;;;;;9.33;3.60;;;10.00;95.80;;;;;;4996007;28;20213;-35
2023/05/18 04:18:04;;;;;;;10.17;3.77;;;10.00;95.80;;;;;;5000745;28;20212;-35
2023/05/18 04:20:33;;;;;;;8.70;3.87;;;10.00;95.90;;;;;;4994093;28;20572;-35
2023/05/18 04:23:08;;;;;;;8.77;3.90;;;10.00;95.90;;;;;;4992714;28;20223;-35
2023/05/18 04:25:40;;;;;;;8.47;3.47;;;10.00;95.90;;;;;;5002057;28;20758;-35
2023/05/18 04:28:08;;;;;;;7.97;3.50;;;10.00;95.90;;;;;;4998844;28;20214;-35
2023/05/18 04:30:38;;;;;;;10.33;3.53;;;10.00;95.90;;;;;;4983768;28;20296;-35
2023/05/18 04:33:05;;;;;;;7.53;3.27;;;10.10;95.80;;;;;;4985915;28;20260;-35
2023/05/18 04:35:33;;;;;;;9.10;4.00;;;10.10;96.00;;;;;;4986814;28;20234;-35
2023/05/18 04:38:01;;;;;;;11.97;4.03;;;10.10;96.00;;;;;;4986642;28;20214;-35
2023/05/18 04:40:33;;;;;;;10.27;3.77;;;10.10;95.90;;;;;;4994118;28;20321;-35
2023/05/18 04:43:00;;;;;;;8.60;3.37;;;10.10;96.00;;;;;;4983243;28;20280;-34
2023/05/18 04:45:30;;;;;;;8.97;3.70;;;10.00;96.00;;;;;;4982427;28;20230;-35
2023/05/18 04:48:02;;;;;;;8.37;3.53;;;10.10;96.00;;;;;;4986246;28;20222;-35
2023/05/18 04:50:37;;;;;;;7.63;3.53;;;10.10;96.00;;;;;;4971178;28;20730;-35
2023/05/18 04:53:07;;;;;;;13.27;3.97;;;10.10;96.00;;;;;;5002245;28;20210;-35
2023/05/18 04:55:41;;;;;;;7.47;3.67;;;10.10;96.00;;;;;;4996408;28;20702;-35
2023/05/18 04:58:14;;;;;;;10.60;4.03;;;10.10;96.10;;;;;;4988943;28;20234;-34
2023/05/18 05:00:41;;;;;;;10.07;3.97;;;10.10;95.90;;;;;;4991984;28;20636;-35
2023/05/18 05:03:11;;;;;;;14.80;4.27;;;10.10;96.30;;;;;;4987778;28;20644;-32
2023/05/18 05:05:43;;;;;;;10.90;3.80;;;10.10;96.10;;;;;;4988716;28;20317;-32
2023/05/18 05:08:13;;;;;;;10.80;4.03;;;10.10;96.10;;;;;;4988212;28;20222;-31
2023/05/18 05:10:42;;;;;;;10.33;4.37;;;10.20;96.10;;;;;;4990714;28;21017;-32
2023/05/18 05:13:16;;;;;;;10.60;4.10;;;10.20;96.20;;;;;;4996928;28;20209;-31
2023/05/18 05:15:43;;;;;;;8.20;4.07;;;10.20;96.30;;;;;;4992352;28;20214;-32
2023/05/18 05:18:13;;;;;;;8.80;4.00;;;10.20;96.30;;;;;;4988498;28;20300;-32
2023/05/18 05:20:45;;;;;;;9.80;4.60;;;10.20;96.30;;;;;;4993351;28;20288;-32
2023/05/18 05:23:14;;;;;;;11.73;4.17;;;10.30;96.40;;;;;;4969490;28;20289;-32
2023/05/18 05:25:41;;;;;;;12.77;4.40;;;10.30;96.50;;;;;;4985590;28;20610;-32
2023/05/18 05:28:11;;;;;;;10.37;4.30;;;10.30;96.30;;;;;;4990927;28;20236;-31
2023/05/18 05:30:40;;;;;;;9.37;4.20;;;10.40;96.50;;;;;;4987673;28;20305;-32
2023/05/18 05:33:10;;;;;;;10.80;4.20;;;10.40;96.50;;;;;;4976351;28;20205;-35
2023/05/18 05:35:37;;;;;;;10.30;4.17;;;10.50;96.50;;;;;;4986850;28;20195;-36
2023/05/18 05:38:05;;;;;;;8.73;4.07;;;10.50;96.40;;;;;;4990839;28;20209;-35
2023/05/18 05:40:35;;;;;;;10.20;4.37;;;10.60;96.50;;;;;;4988100;28;20242;-35
2023/05/18 05:43:06;;;;;;;10.40;4.67;;;10.60;96.50;;;;;;4999601;28;20242;-35
2023/05/18 05:45:38;;;;;;;11.50;3.97;;;10.60;96.60;;;;;;4989383;28;20575;-35
2023/05/18 05:48:05;;;;;;;13.53;5.07;;;10.60;96.60;;;;;;4990401;28;20730;-35
2023/05/18 05:50:32;;;;;;;10.07;4.40;;;10.60;96.60;;;;;;4979580;28;20645;-35
2023/05/18 05:53:03;;;;;;;9.90;4.63;;;10.70;96.60;;;;;;4986996;28;20288;-35
2023/05/18 05:55:32;;;;;;;8.70;3.97;;;10.70;97.00;;;;;;4994393;28;20287;-35
2023/05/18 05:58:06;;;;;;;9.60;4.10;;;10.70;96.70;;;;;;4989786;28;21028;-34
2023/05/18 06:00:38;;;;;;;13.03;5.17;;;10.70;97.00;;;;;;4988091;28;20209;-35
2023/05/18 06:03:08;;;;;;;12.03;4.40;;;10.80;97.00;;;;;;5001041;28;20788;-35
2023/05/18 06:05:35;;;;;;;14.10;4.40;;;10.80;96.80;;;;;;4992411;28;20221;-35
2023/05/18 06:08:05;;;;;;;12.03;3.83;;;10.80;97.20;;;;;;5002716;28;20224;-35
2023/05/18 06:10:34;;;;;;;9.40;4.07;;;10.80;96.90;;;;;;4995119;28;20208;-35
2023/05/18 06:13:04;;;;;;;12.37;4.57;;;10.90;96.90;;;;;;4989692;28;20598;-35
2023/05/18 06:15:33;;;;;;;9.63;4.40;;;11.00;97.10;;;;;;4987409;28;20829;-35
2023/05/18 06:18:00;;;;;;;10.43;4.57;;;11.10;97.10;;;;;;4989027;28;20287;-35
2023/05/18 06:20:30;;;;;;;9.87;4.17;;;11.10;97.20;;;;;;4982716;28;20289;-35
2023/05/18 06:23:00;;;;;;;8.70;4.23;;;11.20;97.30;;;;;;4989570;28;20752;-35
2023/05/18 06:25:30;;;;;;;9.67;4.50;;;11.20;97.20;;;;;;4996001;28;20218;-35
2023/05/18 06:27:57;;;;;;;9.67;3.77;;;11.30;97.40;;;;;;4979152;28;20300;-35
2023/05/18 06:30:27;;;;;;;9.50;4.00;;;11.40;97.30;;;;;;4985652;28;20221;-34
2023/05/18 06:33:00;;;;;;;10.00;4.20;;;11.50;97.30;;;;;;4998590;28;20219;-34
2023/05/18 06:35:28;;;;;;;10.10;4.40;;;11.60;97.50;;;;;;4986520;28;20681;-35
2023/05/18 06:37:55;;;;;;;8.13;3.73;;;11.60;97.50;;;;;;4993319;28;20410;-34
2023/05/18 06:40:22;;;;;;;7.80;3.57;;;11.70;97.50;;;;;;4989806;28;20210;-35
2023/05/18 06:42:50;;;;;;;11.73;4.37;;;11.80;97.60;;;;;;4997105;28;21563;-34
2023/05/18 06:45:22;;;;;;;11.50;4.53;;;11.90;97.60;;;;;;4993659;28;20960;-34
2023/05/18 06:47:55;;;;;;;9.50;3.90;;;12.00;97.70;;;;;;5004412;28;20209;-34
2023/05/18 06:50:23;;;;;;;11.07;4.20;;;12.00;97.70;;;;;;4984599;28;20261;-34
2023/05/18 06:52:54;;;;;;;9.07;4.17;;;12.10;97.80;;;;;;4987220;28;20212;-35
2023/05/18 06:55:22;;;;;;;8.53;4.40;;;12.20;97.90;;;;;;4990435;28;20234;-34
2023/05/18 06:57:55;;;;;;;10.13;4.63;;;12.30;97.90;;;;;;4986053;28;20292;-34
2023/05/18 07:00:27;;;;;;;10.90;4.33;;;12.40;97.90;;;;;;4986576;28;20214;-35
2023/05/18 07:02:57;;;;;;;12.67;5.10;;;12.40;97.90;;;;;;4997750;28;20252;-35
2023/05/18 07:05:27;;;;;;;10.87;4.57;;;12.40;97.90;;;;;;4984295;28;20209;-34
2023/05/18 07:07:56;;;;;;;11.63;5.30;;;12.50;97.90;;;;;;4988175;28;20210;-35
2023/05/18 07:10:29;;;;;;;12.90;4.63;;;12.50;97.80;;;;;;4977653;28;20276;-35
2023/05/18 07:12:56;;;;;;;10.97;4.43;;;12.60;97.90;;;;;;4985799;28;20293;-35
2023/05/18 07:15:26;;;;;;;8.40;4.53;;;12.60;98.00;;;;;;4987948;28;20206;-35
2023/05/18 07:17:58;;;;;;;9.33;4.90;;;12.60;98.00;;;;;;4987929;28;20570;-35
2023/05/18 07:20:25;;;;;;;6.93;4.13;;;12.60;98.00;;;;;;4987924;28;20207;-35
2023/05/18 07:22:54;;;;;;;9.80;4.17;;;12.70;98.10;;;;;;4970481;28;20225;-35
2023/05/18 07:25:22;;;;;;;9.40;4.50;;;12.70;98.10;;;;;;4986218;28;20213;-34
2023/05/18 07:27:53;;;;;;;11.00;4.43;;;12.80;98.10;;;;;;4987492;28;21103;-35
2023/05/18 07:30:25;;;;;;;9.13;4.13;;;12.80;98.10;;;;;;4996312;28;20206;-35
2023/05/18 07:32:55;;;;;;;10.93;5.10;;;12.90;98.20;;;;;;5006988;28;20193;-35
2023/05/18 07:35:24;;;;;;;10.27;4.80;;;12.90;98.20;;;;;;5005436;28;20250;-35
2023/05/18 07:37:56;;;;;;;8.90;4.43;;;13.00;98.30;;;;;;4972305;28;20222;-35
2023/05/18 07:40:23;;;;;;;7.57;4.47;;;13.00;98.30;;;;;;4988536;28;20213;-35
2023/05/18 07:42:50;;;;;;;9.77;4.20;;;13.10;98.30;;;;;;4986735;28;20261;-35
2023/05/18 07:45:20;;;;;;;10.27;4.83;;;13.10;98.30;;;;;;4985864;28;20293;-35
2023/05/18 07:47:47;;;;;;;11.27;4.93;;;13.20;98.40;;;;;;4985677;28;20230;-34
2023/05/18 07:50:18;;;;;;;7.63;4.53;;;13.20;98.30;;;;;;4985993;28;20233;-35
2023/05/18 07:52:45;;;;;;;12.70;4.90;;;13.30;98.40;;;;;;4984694;28;20308;-34
2023/05/18 07:55:15;;;;;;;9.63;4.30;;;13.30;98.40;;;;;;4988334;28;20887;-32
2023/05/18 07:57:42;;;;;;;7.40;4.50;;;13.40;98.40;;;;;;5003881;28;20315;-32
2023/05/18 08:00:12;;;;;;;9.27;4.70;;;13.40;98.50;;;;;;5001665;28;20703;-31
2023/05/18 08:02:43;;;;;;;8.20;4.60;;;13.50;98.50;;;;;;5003843;28;20783;-31
2023/05/18 08:05:13;;;;;;;11.07;5.20;;;13.50;98.50;;;;;;4989183;28;20204;-32
2023/05/18 08:07:42;;;;;;;9.13;4.87;;;13.50;98.50;;;;;;4987084;28;20229;-32
2023/05/18 08:10:14;;;;;;;14.70;5.70;;;13.60;98.50;;;;;;4995809;28;20210;-32
2023/05/18 08:12:42;;;;;;;12.23;4.90;;;13.60;98.50;;;;;;4995891;28;20627;-32
2023/05/18 08:15:11;;;;;;;11.60;4.87;;;13.60;98.50;;;;;;4989464;28;20731;-35
2023/05/18 08:17:38;;;;;;;10.73;5.37;;;13.60;98.50;;;;;;4993315;28;20583;-35
2023/05/18 08:20:09;;;;;;;8.67;4.73;;;13.60;98.50;;;;;;4985537;28;20699;-34
2023/05/18 08:22:36;;;;;;;12.97;5.10;;;13.60;98.50;;;;;;4997071;28;20729;-35
2023/05/18 08:25:09;;;;;;;9.20;5.17;;;13.60;98.40;;;;;;4995063;28;20646;-35
2023/05/18 08:27:38;;;;;;;10.57;4.33;;;13.60;98.40;;;;;;4988411;28;20262;-35
2023/05/18 08:30:08;;;;;;;7.07;4.17;;;13.60;98.40;;;;;;4990815;28;20602;-35
2023/05/18 08:32:36;;;;;;;13.47;5.20;;;13.60;98.40;;;;;;5004518;28;20206;-35
2023/05/18 08:35:04;;;;;;;9.13;4.40;;;13.60;98.30;;;;;;5005523;28;20198;-35
2023/05/18 08:37:38;;;;;;;11.40;5.23;;;13.70;98.40;;;;;;4983751;28;20225;-35
2023/05/18 08:40:10;;;;;;;10.03;5.30;;;13.70;98.40;;;;;;4990990;28;20995;-35
2023/05/18 08:43:01;;;;;;;8.40;4.60;;;13.70;98.30;;;;;;4998008;28;20633;-35
2023/05/18 08:45:45;;;;;;;8.03;4.43;;;13.70;98.40;;;;;;4984013;28;20218;-35
2023/05/18 08:48:23;;;;;;;8.90;4.90;;;13.70;98.50;;;;;;4992252;28;20249;-35
2023/05/18 08:50:59;;;;;;;10.80;4.55;;;13.70;98.50;;;;;;4999453;28;20735;-35
2023/05/18 08:53:28;;;;;;;12.57;5.22;;;13.70;98.60;;;;;;4999063;28;20206;-35
2023/05/18 08:55:59;;;;;;;9.38;4.85;;;13.70;98.60;;;;;;4989831;28;20680;-35
2023/05/18 08:58:43;;;;;;;13.25;5.32;;;13.80;98.70;;;;;;4989176;28;20244;-35
2023/05/18 09:01:13;;;;;;;12.55;4.85;;;13.80;98.80;;;;;;4985149;28;20209;-35
2023/05/18 09:03:41;;;;;;;10.73;5.10;;;13.90;98.80;;;;;;5002496;28;20202;-34
2023/05/18 09:06:14;;;;;;;11.45;4.93;;;13.90;98.80;;;;;;5000465;28;20268;-35
2023/05/18 09:08:45;;;;;;;8.63;4.70;;;14.00;98.90;;;;;;4991981;28;20212;-35
2023/05/18 09:11:18;;;;;;;12.32;4.78;;;14.00;98.80;;;;;;4984247;28;20628;-32
2023/05/18 09:13:50;;;;;;;15.02;5.65;;;14.10;98.70;;;;;;5000944;28;20205;-32
2023/05/18 09:16:20;;;;;;;12.60;4.80;;;14.20;98.70;;;;;;4982591;28;20214;-32
2023/05/18 09:18:50;;;;;;;9.35;4.47;;;14.20;98.70;;;;;;4985457;28;20221;-32
2023/05/18 09:21:23;;;;;;;11.75;5.20;;;14.20;98.80;;;;;;4982930;28;20218;-32
2023/05/18 09:23:53;;;;;;;8.90;4.95;;;14.20;98.80;;;;;;4997266;28;20221;-32
2023/05/18 09:26:23;;;;;;;10.38;4.60;;;14.30;98.90;;;;;;4999093;28;20318;-32
2023/05/18 09:28:53;;;;;;;10.20;4.82;;;14.30;99.00;;;;;;4987516;28;20257;-32
2023/05/18 09:31:23;;;;;;;11.23;4.20;;;14.40;98.90;;;;;;4994086;28;20205;-32
2023/05/18 09:33:53;;;;;;;10.90;5.30;;;14.40;99.00;;;;;;4999708;28;20209;-32
2023/05/18 09:36:31;;;;;;;11.30;5.20;;;14.50;98.80;;;;;;4988477;28;20206;-32
2023/05/18 09:39:05;;;;;;;9.45;4.90;;;14.50;98.90;;;;;;4995516;28;20354;-32
2023/05/18 09:41:40;;;;;;;9.52;5.15;;;14.60;99.00;;;;;;4986200;28;20206;-32
2023/05/18 09:44:11;;;;;;;14.20;5.07;;;14.60;99.00;;;;;;4996512;28;20202;-32
2023/05/18 09:46:43;;;;;;;13.68;4.78;;;14.60;99.00;;;;;;4985488;28;20536;-32
2023/05/18 09:49:11;;;;;;;10.20;3.58;;;14.70;99.00;;;;;;5003919;28;20198;-32
2023/05/18 09:51:41;;;;;;;9.10;3.53;;;14.80;98.60;;;;;;4991586;28;20202;-32
2023/05/18 09:54:13;;;;;;;8.15;3.90;;;14.70;98.50;;;;;;4990704;28;20526;-32
2023/05/18 09:56:40;;;;;;;6.22;2.92;;;14.80;97.80;;;;;;4998130;28;20284;-32
2023/05/18 09:59:15;;;;;;;6.38;2.78;;;14.80;98.10;;;;;;4992432;28;20210;-32
2023/05/18 10:01:59;;;;;;;7.95;2.78;;;14.80;98.10;;;;;;4986732;28;20205;-32
2023/05/18 10:04:42;;;;;;;10.15;3.35;;;14.80;98.30;;;;;;4982918;28;20708;-32
2023/05/18 10:07:16;;;;;;;7.70;3.25;;;14.80;98.00;;;;;;4987105;28;20735;-32
2023/05/18 10:09:44;;;;;;;9.52;3.80;;;14.80;98.20;;;;;;4987240;28;20221;-32
2023/05/18 10:12:13;;;;;;;7.93;3.22;;;14.90;97.90;;;;;;4982309;28;20210;-32
2023/05/18 10:14:42;;;;;;;8.38;3.13;;;14.90;98.00;;;;;;5003579;28;20222;-32
2023/05/18 10:17:11;;;;;;;9.50;3.10;;;15.00;98.10;;;;;;4996135;28;20199;-32
2023/05/18 10:19:52;;;;;;;7.80;3.28;;;15.10;98.40;;;;;;4980904;28;20223;-32
2023/05/18 10:22:22;;;;;;;11.15;3.63;;;15.10;98.30;;;;;;5005812;28;20225;-32
2023/05/18 10:24:56;;;;;;;8.00;3.35;;;15.20;98.30;;;;;;5001871;28;20225;-32
2023/05/18 10:27:27;;;;;;;11.75;4.07;;;15.30;98.30;;;;;;4992328;28;20710;-32
2023/05/18 10:29:57;;;;;;;8.65;3.65;;;15.30;97.40;;;;;;4986365;28;20312;-32
2023/05/18 10:32:26;;;;;;;10.35;3.88;;;15.40;96.50;;;;;;4985641;28;20202;-32
2023/05/18 10:34:55;;;;;;;8.52;3.38;;;15.40;97.40;;;;;;4983254;28;20305;-32
2023/05/18 10:37:29;;;;;;;9.35;2.92;;;15.50;97.60;;;;;;4994190;28;20217;-32
2023/05/18 10:39:59;;;;;;;6.75;3.60;;;15.60;96.80;;;;;;5001466;28;20778;-32
2023/05/18 10:42:34;;;;;;;10.88;3.38;;;15.60;97.40;;;;;;5002425;28;20690;-32
2023/05/18 10:45:08;;;;;;;10.32;3.20;;;15.60;97.00;;;;;;5000792;28;20212;-31
2023/05/18 10:47:39;;;;;;;8.65;3.15;;;15.70;97.70;;;;;;5004402;28;20225;-32
2023/05/18 10:50:10;;;;;;;11.98;4.47;;;15.70;97.80;;;;;;5000195;28;20224;-32
2023/05/18 10:52:38;;;;;;;6.30;3.38;;;15.80;96.10;;;;;;4987686;28;20225;-32
2023/05/18 10:55:08;;;;;;;8.63;3.80;;;15.80;97.10;;;;;;4980173;28;20305;-32
2023/05/18 10:57:42;;;;;;;7.57;3.72;;;15.80;97.30;;;;;;4987061;28;20234;-32
2023/05/18 11:00:13;;;;;;;5.65;2.83;;;15.80;97.40;;;;;;4990607;28;20201;-32
2023/05/18 11:02:45;;;;;;;6.63;3.15;;;15.90;97.50;;;;;;4986411;28;20209;-32
2023/05/18 11:05:12;;;;;;;8.88;3.30;;;15.90;97.60;;;;;;4985612;28;20213;-32
2023/05/18 11:07:44;;;;;;;10.75;3.75;;;16.00;98.00;;;;;;4988520;28;20483;-32
2023/05/18 11:10:12;;;;;;;8.10;3.30;;;16.10;97.50;;;;;;4984557;28;20566;-32
2023/05/18 11:12:40;;;;;;;7.00;2.80;;;16.10;98.10;;;;;;4994765;28;20205;-32
2023/05/18 11:15:10;;;;;;;7.28;3.25;;;16.20;98.40;;;;;;5005331;28;20220;-32
2023/05/18 11:17:37;;;;;;;11.95;4.22;;;16.30;98.10;;;;;;5000139;28;20285;-32
2023/05/18 11:20:08;;;;;;;9.82;3.58;;;16.40;97.80;;;;;;4989012;28;20206;-32
2023/05/18 11:22:50;;;;;;;6.32;3.42;;;16.50;97.70;;;;;;4985843;28;20288;-32
2023/05/18 11:25:31;;;;;;;12.82;4.00;;;16.60;98.00;;;;;;4988342;28;20221;-34
2023/05/18 11:28:04;;;;;;;10.75;4.07;;;16.60;97.90;;;;;;4995410;28;20256;-35
2023/05/18 11:30:31;;;;;;;8.38;3.80;;;16.70;98.00;;;;;;4992786;28;20214;-34
2023/05/18 11:33:23;;;;;;;5.28;2.45;;;16.80;97.90;;;;;;4986536;28;20608;-34
2023/05/18 11:36:08;;;;;;;6.40;3.20;;;16.80;98.20;;;;;;4995719;28;20208;-34
2023/05/18 11:39:03;;;;;;;6.97;3.25;;;16.90;98.40;;;;;;4992922;28;20217;-34
2023/05/18 11:41:33;;;;;;;8.63;3.20;;;17.00;98.10;;;;;;4992619;28;20210;-35
2023/05/18 11:44:14;;;;;;;6.70;3.70;;;17.10;98.20;;;;;;4999738;28;20224;-35
2023/05/18 11:47:12;;;;;;;7.47;3.65;;;17.20;98.30;;;;;;4985635;28;20226;-33
2023/05/18 11:49:46;;;;;;;8.57;3.45;;;17.30;97.80;;;;;;4985784;28;20278;-33
2023/05/18 11:52:15;;;;;;;6.75;3.05;;;17.30;97.90;;;;;;4997537;28;20206;-34
2023/05/18 11:54:52;;;;;;;5.57;3.10;;;17.30;97.90;;;;;;4991981;28;20286;-34
2023/05/18 11:57:36;;;;;;;7.35;3.13;;;17.40;98.40;;;;;;4984084;28;20591;-34
2023/05/18 12:00:08;;;;;;;7.38;3.05;;;17.40;98.30;;;;;;4983875;28;20206;-34
2023/05/18 12:02:35;;;;;;;6.38;3.03;;;17.40;98.50;;;;;;4988799;28;20226;-34
2023/05/18 12:05:10;;;;;;;5.80;3.70;;;17.50;98.50;;;;;;4991776;28;20209;-34
2023/05/18 12:07:40;;;;;;;8.90;3.67;;;17.50;98.60;;;;;;4989520;28;20225;-34
2023/05/18 12:10:13;;;;;;;8.70;3.95;;;17.60;98.70;;;;;;4985706;28;20704;-34
2023/05/18 12:12:46;;;;;;;8.52;3.65;;;17.70;98.60;;;;;;4983202;28;20289;-34
2023/05/18 12:15:22;;;;;;;10.40;4.47;;;17.70;98.80;;;;;;4984358;28;20685;-34
2023/05/18 12:17:55;;;;;;;6.07;3.38;;;17.80;98.70;;;;;;4985445;28;20194;-34
2023/05/18 12:20:29;;;;;;;8.82;3.72;;;17.80;98.80;;;;;;4992000;28;20201;-34
2023/05/18 12:22:59;;;;;;;7.90;3.58;;;17.90;98.30;;;;;;4999602;28;20609;-34
2023/05/18 12:25:29;;;;;;;8.02;4.15;;;17.90;98.50;;;;;;4997767;28;20205;-34
2023/05/18 12:27:58;;;;;;;7.57;4.20;;;18.00;98.50;;;;;;4993091;28;20218;-34
2023/05/18 12:30:37;;;;;;;7.28;4.50;;;18.00;98.60;;;;;;4989543;28;20217;-32
2023/05/18 12:33:06;;;;;;;5.85;3.60;;;18.00;97.90;;;;;;4993753;28;20205;-32
2023/05/18 12:35:36;;;;;;;8.93;4.07;;;18.00;98.50;;;;;;5004936;28;20202;-34
2023/05/18 12:38:06;;;;;;;8.23;4.03;;;18.00;98.30;;;;;;5001860;28;20745;-34
2023/05/18 12:40:42;;;;;;;13.77;4.95;;;18.00;98.20;;;;;;4993521;28;20594;-34
2023/05/18 12:43:12;;;;;;;9.18;4.47;;;18.10;97.90;;;;;;5003860;28;20308;-34
2023/05/18 12:45:44;;;;;;;9.77;4.18;;;18.10;97.50;;;;;;4989000;28;20699;-34
2023/05/18 12:48:14;;;;;;;9.50;4.20;;;18.00;98.10;;;;;;4977190;28;20236;-34
2023/05/18 12:50:49;;;;;;;8.02;4.65;;;18.10;96.30;;;;;;4987626;28;20759;-34
2023/05/18 12:53:17;;;;;;;7.95;3.90;;;18.10;96.90;;;;;;4997487;28;20217;-34
2023/05/18 12:55:47;;;;;;;7.35;4.35;;;18.00;97.20;;;;;;4981193;28;20714;-34
2023/05/18 12:58:17;;;;;;;7.03;3.97;;;18.00;96.70;;;;;;5004409;28;20245;-32
2023/05/18 13:00:47;;;;;;;6.85;4.53;;;18.00;97.50;;;;;;4994667;28;20741;-31
2023/05/18 13:03:20;;;;;;;9.02;4.38;;;18.00;97.00;;;;;;4989442;28;20760;-31